createdAt,value
2023-03-18T00:02:14.433Z,100672.94
2023-03-18T00:06:27.390Z,100668.44
2023-03-18T00:10:39.909Z,100658.53
2023-03-18T00:14:52.490Z,100654.22
2023-03-18T00:19:05.181Z,100648.81
2023-03-18T00:23:18.436Z,100650.63
2023-03-18T00:27:31.041Z,100646.22
2023-03-18T00:31:43.985Z,100640.84
2023-03-18T00:35:56.466Z,100638.94
2023-03-18T00:40:17.476Z,100641.38
2023-03-18T00:44:30.952Z,100640.31
2023-03-18T00:48:43.977Z,100640.22
2023-03-18T00:52:56.765Z,100639.47
2023-03-18T00:57:11.151Z,100633.09
2023-03-18T01:01:24.831Z,100627.63
2023-03-18T01:05:38.522Z,100640.00
2023-03-18T01:09:51.028Z,100637.31
2023-03-18T01:14:03.921Z,100635.44
2023-03-18T01:18:16.989Z,100633.72
2023-03-18T01:22:29.687Z,100644.66
2023-03-18T01:26:42.091Z,100640.75
2023-03-18T01:30:55.987Z,100637.13
2023-03-18T01:35:09.502Z,100641.72
2023-03-18T01:39:24.678Z,100646.31
2023-03-18T01:43:40.916Z,100634.88
2023-03-18T01:47:53.769Z,100639.00
2023-03-18T01:52:14.179Z,100644.00
2023-03-18T01:56:27.398Z,100635.88
2023-03-18T02:00:51.945Z,100631.59
2023-03-18T02:05:06.790Z,100638.28
2023-03-18T02:09:19.566Z,100636.56
2023-03-18T02:13:32.503Z,100642.81
2023-03-18T02:17:52.276Z,100645.66
2023-03-18T02:22:24.414Z,100641.38
2023-03-18T02:27:01.913Z,100645.81
2023-03-18T02:31:27.543Z,100649.00
2023-03-18T02:35:43.001Z,100651.63
2023-03-18T02:39:55.481Z,100657.66
2023-03-18T02:44:09.212Z,100653.88
2023-03-18T02:48:37.836Z,100652.06
2023-03-18T02:52:50.768Z,100659.94
2023-03-18T02:57:04.555Z,100656.28
2023-03-18T03:01:17.789Z,100662.41
2023-03-18T03:05:30.340Z,100658.38
2023-03-18T03:09:42.902Z,100662.34
2023-03-18T03:13:55.332Z,100665.84
2023-03-18T03:18:08.078Z,100674.84
2023-03-18T03:22:22.266Z,100665.31
2023-03-18T03:26:37.743Z,100666.53
2023-03-18T03:30:50.716Z,100665.56
2023-03-18T03:35:03.146Z,100671.91
2023-03-18T03:39:15.457Z,100669.09
2023-03-18T03:43:28.077Z,100674.91
2023-03-18T03:47:41.948Z,100671.97
2023-03-18T03:51:55.191Z,100671.34
2023-03-18T03:56:09.535Z,100676.25
2023-03-18T04:00:23.088Z,100675.16
2023-03-18T04:04:36.156Z,100666.44
2023-03-18T04:08:48.929Z,100671.84
2023-03-18T04:13:01.396Z,100670.66
2023-03-18T04:17:14.465Z,100669.44
2023-03-18T04:21:27.541Z,100662.78
2023-03-18T04:25:42.128Z,100665.34
2023-03-18T04:29:54.810Z,100659.56
2023-03-18T04:34:12.155Z,100672.56
2023-03-18T04:38:24.915Z,100667.88
2023-03-18T04:42:38.879Z,100667.75
2023-03-18T04:46:53.995Z,100667.53
2023-03-18T04:51:09.578Z,100676.22
2023-03-18T04:55:23.073Z,100674.94
2023-03-18T04:59:36.641Z,100675.63
2023-03-18T05:03:52.054Z,100675.50
2023-03-18T05:08:07.826Z,100671.84
2023-03-18T05:12:20.759Z,100682.38
2023-03-18T05:16:33.320Z,100680.47
2023-03-18T05:20:47.142Z,100684.69
2023-03-18T05:25:02.241Z,100687.28
2023-03-18T05:29:16.899Z,100697.09
2023-03-18T05:33:38.498Z,100692.59
2023-03-18T05:37:51.408Z,100692.66
2023-03-18T05:42:05.104Z,100692.69
2023-03-18T05:46:18.298Z,100701.63
2023-03-18T05:50:47.293Z,100693.25
2023-03-18T05:55:05.319Z,100705.03
2023-03-18T05:59:24.190Z,100710.38
2023-03-18T06:03:41.936Z,100709.81
2023-03-18T06:07:55.227Z,100706.59
2023-03-18T06:12:08.159Z,100709.34
2023-03-18T06:16:22.604Z,100713.09
2023-03-18T06:20:38.939Z,100715.00
2023-03-18T06:24:52.950Z,100719.47
2023-03-18T06:29:05.632Z,100710.88
2023-03-18T06:33:18.601Z,100718.97
2023-03-18T06:37:31.505Z,100714.72
2023-03-18T06:41:44.004Z,100716.47
2023-03-18T06:46:29.311Z,100720.22
2023-03-18T06:50:43.366Z,100715.06
2023-03-18T06:55:03.011Z,100716.13
2023-03-18T06:59:15.800Z,100718.88
2023-03-18T07:03:28.504Z,100718.06
2023-03-18T07:07:42.306Z,100715.47
2023-03-18T07:11:57.002Z,100713.75
2023-03-18T07:16:10.216Z,100726.09
2023-03-18T07:20:24.323Z,100719.81
2023-03-18T07:24:37.760Z,100725.97
2023-03-18T07:28:50.752Z,100723.22
2023-03-18T07:33:04.398Z,100735.44
2023-03-18T07:37:17.205Z,100727.44
2023-03-18T07:41:29.952Z,100729.22
2023-03-18T07:45:42.308Z,100735.22
2023-03-18T07:49:54.750Z,100727.06
2023-03-18T07:54:07.220Z,100726.09
2023-03-18T07:58:19.946Z,100731.09
2023-03-18T08:02:32.378Z,100721.16
2023-03-18T08:06:45.284Z,100721.72
2023-03-18T08:11:00.662Z,100718.19
2023-03-18T08:15:14.050Z,100719.94
2023-03-18T08:19:27.357Z,100722.53
2023-03-18T08:23:39.912Z,100719.53
2023-03-18T08:27:52.616Z,100714.09
2023-03-18T08:32:05.335Z,100721.03
2023-03-18T08:36:17.932Z,100720.69
2023-03-18T08:40:30.317Z,100723.06
2023-03-18T08:44:43.753Z,100718.78
2023-03-18T08:48:56.118Z,100715.06
2023-03-18T08:53:09.657Z,100717.38
2023-03-18T08:57:22.294Z,100720.44
2023-03-18T09:01:38.481Z,100718.59
2023-03-18T09:05:54.067Z,100706.16
2023-03-18T09:10:07.075Z,100718.97
2023-03-18T09:14:20.195Z,100712.38
2023-03-18T09:18:33.154Z,100714.34
2023-03-18T09:22:46.726Z,100728.22
2023-03-18T09:27:00.163Z,100713.34
2023-03-18T09:31:14.028Z,100709.22
2023-03-18T09:35:26.566Z,100711.75
2023-03-18T09:39:39.174Z,100709.69
2023-03-18T09:44:28.717Z,100711.28
2023-03-18T09:49:04.062Z,100694.72
2023-03-18T09:53:25.390Z,100699.47
2023-03-18T09:57:43.029Z,100694.06
2023-03-18T10:01:58.731Z,100700.56
2023-03-18T10:06:21.965Z,100695.16
2023-03-18T10:10:46.981Z,100700.16
2023-03-18T10:15:11.359Z,100699.50
2023-03-18T10:19:24.084Z,100692.63
2023-03-18T10:23:54.737Z,100702.69
2023-03-18T10:28:33.891Z,100692.75
2023-03-18T10:32:58.431Z,100695.06
2023-03-18T10:37:26.133Z,100690.22
2023-03-18T10:41:41.332Z,100684.97
2023-03-18T10:46:03.964Z,100674.94
2023-03-18T10:50:32.357Z,100671.44
2023-03-18T10:54:53.702Z,100664.59
2023-03-18T10:59:16.568Z,100664.59
2023-03-18T11:03:36.213Z,100663.84
2023-03-18T11:08:00.902Z,100654.88
2023-03-18T11:12:19.648Z,100651.16
2023-03-18T11:16:35.110Z,100641.69
2023-03-18T11:20:49.989Z,100641.88
2023-03-18T11:25:27.262Z,100629.56
2023-03-18T11:29:46.832Z,100625.03
2023-03-18T11:34:01.125Z,100617.09
2023-03-18T11:38:32.170Z,100611.13
2023-03-18T11:42:49.204Z,100613.19
2023-03-18T11:47:04.026Z,100607.19
2023-03-18T11:51:50.471Z,100596.88
2023-03-18T11:56:19.296Z,100589.56
2023-03-18T12:00:57.956Z,100578.41
2023-03-18T12:05:21.968Z,100579.41
2023-03-18T12:09:38.735Z,100564.59
2023-03-18T12:13:53.186Z,100568.97
2023-03-18T12:18:20.795Z,100562.31
2023-03-18T12:22:50.004Z,100549.44
2023-03-18T12:27:40.280Z,100555.41
2023-03-18T12:32:15.857Z,100544.78
2023-03-18T12:36:44.691Z,100541.38
2023-03-18T12:41:17.867Z,100544.81
2023-03-18T12:45:39.915Z,100542.84
2023-03-18T12:50:01.244Z,100540.06
2023-03-18T12:54:18.310Z,100540.78
2023-03-18T12:58:42.154Z,100534.81
2023-03-18T13:03:09.197Z,100535.94
2023-03-18T13:08:03.446Z,100534.28
2023-03-18T13:12:37.979Z,100520.09
2023-03-18T13:17:06.407Z,100517.66
2023-03-18T13:21:41.421Z,100518.63
2023-03-18T13:31:29.880Z,100519.03
2023-03-18T13:35:59.792Z,100506.50
2023-03-18T13:40:39.950Z,100510.56
2023-03-18T13:45:28.708Z,100502.09
2023-03-18T13:49:41.495Z,100499.88
2023-03-18T13:53:58.925Z,100488.91
2023-03-18T13:58:26.085Z,100490.53
2023-03-18T14:02:42.140Z,100482.97
2023-03-18T14:07:19.812Z,100492.13
2023-03-18T14:11:45.508Z,100495.03
2023-03-18T14:15:59.257Z,100491.84
2023-03-18T14:20:22.741Z,100487.94
2023-03-18T14:24:40.460Z,100491.41
2023-03-18T14:29:18.598Z,100487.41
2023-03-18T14:33:37.250Z,100498.28
2023-03-18T14:38:17.770Z,100481.75
2023-03-18T14:42:48.892Z,100485.41
2023-03-18T14:47:06.945Z,100486.47
2023-03-18T14:51:21.775Z,100478.69
2023-03-18T14:55:36.243Z,100480.19
2023-03-18T14:59:50.941Z,100489.56
2023-03-18T15:04:04.235Z,100489.56
2023-03-18T15:08:37.452Z,100486.69
2023-03-18T15:13:26.498Z,100500.97
2023-03-18T15:17:39.732Z,100501.81
2023-03-18T15:21:52.918Z,100495.81
2023-03-18T15:26:29.221Z,100495.59
2023-03-18T15:30:58.109Z,100507.22
2023-03-18T15:35:29.162Z,100519.69
2023-03-18T15:39:42.551Z,100514.06
2023-03-18T15:43:55.021Z,100511.63
2023-03-18T15:48:17.131Z,100520.78
2023-03-18T15:52:36.935Z,100519.03
2023-03-18T15:56:50.468Z,100528.28
2023-03-18T16:01:03.170Z,100533.88
2023-03-18T16:05:17.718Z,100544.91
2023-03-18T16:09:36.285Z,100548.56
2023-03-18T16:13:49.267Z,100556.00
2023-03-18T16:18:06.866Z,100560.59
2023-03-18T16:22:19.390Z,100557.28
2023-03-18T16:26:37.710Z,100571.56
2023-03-18T16:30:56.364Z,100569.09
2023-03-18T16:35:13.350Z,100584.34
2023-03-18T16:39:34.216Z,100577.34
2023-03-18T16:43:49.409Z,100575.78
2023-03-18T16:48:05.132Z,100570.63
2023-03-18T16:52:18.335Z,100588.38
2023-03-18T16:56:31.847Z,100591.16
2023-03-18T17:00:48.378Z,100593.88
2023-03-18T17:05:01.703Z,100598.38
2023-03-18T17:09:14.368Z,100606.47
2023-03-18T17:13:33.108Z,100607.41
2023-03-18T17:17:46.107Z,100621.59
2023-03-18T17:21:58.537Z,100622.47
2023-03-18T17:26:15.309Z,100620.72
2023-03-18T17:30:39.810Z,100632.25
2023-03-18T17:34:54.249Z,100626.19
2023-03-18T17:39:06.626Z,100630.59
2023-03-18T17:43:38.013Z,100625.31
2023-03-18T17:47:50.568Z,100635.06
2023-03-18T17:52:02.945Z,100646.56
2023-03-18T17:56:17.533Z,100642.13
2023-03-18T18:00:31.277Z,100648.34
2023-03-18T18:04:46.033Z,100648.38
2023-03-18T18:09:00.750Z,100651.03
2023-03-18T18:13:19.623Z,100638.66
2023-03-18T18:17:32.602Z,100643.09
2023-03-18T18:21:46.817Z,100644.84
2023-03-18T18:26:02.182Z,100662.53
2023-03-18T18:30:20.609Z,100667.84
2023-03-18T18:34:33.238Z,100668.72
2023-03-18T18:38:46.226Z,100668.69
2023-03-18T18:42:58.609Z,100681.03
2023-03-18T18:47:21.490Z,100674.00
2023-03-18T18:51:35.273Z,100681.06
2023-03-18T18:55:47.896Z,100678.41
2023-03-18T19:00:00.184Z,100685.47
2023-03-18T19:04:16.012Z,100681.06
2023-03-18T19:08:31.957Z,100688.97
2023-03-18T19:12:44.929Z,100689.88
2023-03-18T19:16:59.131Z,100694.25
2023-03-18T19:21:12.224Z,100707.47
2023-03-18T19:25:26.002Z,100695.16
2023-03-18T19:29:38.757Z,100713.69
2023-03-18T19:33:52.374Z,100712.84
2023-03-18T19:38:04.867Z,100721.69
2023-03-18T19:42:19.012Z,100719.91
2023-03-18T19:46:37.228Z,100726.06
2023-03-18T19:50:50.415Z,100707.47
2023-03-18T19:55:08.520Z,100718.00
2023-03-18T19:59:26.093Z,100710.97
2023-03-18T20:03:38.919Z,100711.81
2023-03-18T20:07:51.287Z,100717.13
2023-03-18T20:12:05.993Z,100712.69
2023-03-18T20:16:19.708Z,100719.66
2023-03-18T20:20:33.854Z,100710.84
2023-03-18T20:24:47.569Z,100708.16
2023-03-18T20:29:00.238Z,100716.09
2023-03-18T20:33:15.914Z,100714.28
2023-03-18T20:37:34.986Z,100723.84
2023-03-18T20:41:48.325Z,100733.44
2023-03-18T20:46:02.225Z,100720.34
2023-03-18T20:50:26.355Z,100715.84
2023-03-18T20:54:38.759Z,100723.78
2023-03-18T20:58:51.715Z,100722.75
2023-03-18T21:03:04.201Z,100729.47
2023-03-18T21:07:16.933Z,100725.25
2023-03-18T21:11:32.922Z,100726.56
2023-03-18T21:15:45.731Z,100721.03
2023-03-18T21:20:11.027Z,100742.00
2023-03-18T21:24:28.717Z,100736.91
2023-03-18T21:28:41.075Z,100733.13
2023-03-18T21:32:53.549Z,100735.63
2023-03-18T21:37:15.272Z,100736.38
2023-03-18T21:41:31.201Z,100728.31
2023-03-18T21:45:43.657Z,100738.84
2023-03-18T21:49:57.580Z,100748.47
2023-03-18T21:54:18.678Z,100748.38
2023-03-18T21:58:31.149Z,100761.41
2023-03-18T22:02:44.136Z,100753.53
2023-03-18T22:06:56.635Z,100763.06
2023-03-18T22:11:23.099Z,100757.88
2023-03-18T22:15:39.927Z,100769.13
2023-03-18T22:19:52.904Z,100762.09
2023-03-18T22:24:05.591Z,100767.63
2023-03-18T22:28:18.660Z,100777.47
2023-03-18T22:32:43.221Z,100793.13
2023-03-18T22:36:55.876Z,100789.50
2023-03-18T22:41:19.583Z,100790.00
2023-03-18T22:45:34.228Z,100794.31
2023-03-18T22:49:47.287Z,100791.13
2023-03-18T22:53:59.705Z,100788.59
2023-03-18T22:58:20.876Z,100796.84
2023-03-18T23:02:33.277Z,100796.09
2023-03-18T23:06:46.417Z,100806.63
2023-03-18T23:11:01.993Z,100812.56
2023-03-18T23:15:18.347Z,100807.25
2023-03-18T23:19:30.738Z,100802.13
2023-03-18T23:23:43.379Z,100802.72
2023-03-18T23:27:55.768Z,100804.28
2023-03-18T23:32:08.460Z,100800.78
2023-03-18T23:36:20.915Z,100805.28
2023-03-18T23:40:33.845Z,100811.34
2023-03-18T23:44:46.974Z,100803.50
2023-03-18T23:48:59.772Z,100816.47
2023-03-18T23:53:12.158Z,100815.19
2023-03-18T23:57:24.687Z,100815.91
